createdAt,value
2023-05-30T00:01:08.385Z,3.10
2023-05-30T00:03:36.595Z,3.57
2023-05-30T00:06:04.384Z,3.40
2023-05-30T00:08:31.897Z,3.40
2023-05-30T00:10:59.067Z,3.20
2023-05-30T00:13:29.317Z,3.57
2023-05-30T00:15:58.105Z,3.40
2023-05-30T00:18:26.661Z,3.70
2023-05-30T00:20:53.744Z,3.60
2023-05-30T00:23:21.561Z,3.03
2023-05-30T00:25:49.846Z,3.40
2023-05-30T00:28:16.766Z,3.37
2023-05-30T00:30:43.708Z,3.37
2023-05-30T00:33:11.702Z,3.50
2023-05-30T00:35:40.093Z,3.20
2023-05-30T00:38:08.731Z,3.17
2023-05-30T00:40:35.639Z,3.83
2023-05-30T00:43:02.581Z,3.20
2023-05-30T00:45:29.585Z,3.30
2023-05-30T00:47:57.074Z,3.60
2023-05-30T00:50:27.321Z,3.37
2023-05-30T00:52:57.929Z,3.90
2023-05-30T00:55:26.277Z,3.60
2023-05-30T00:57:53.925Z,3.40
2023-05-30T01:00:22.332Z,3.47
2023-05-30T01:02:50.184Z,3.63
2023-05-30T01:05:17.278Z,3.27
2023-05-30T01:07:49.208Z,3.40
2023-05-30T01:10:18.382Z,3.33
2023-05-30T01:12:53.623Z,3.30
2023-05-30T01:15:27.474Z,3.60
2023-05-30T01:18:02.681Z,3.37
2023-05-30T01:20:33.293Z,3.60
2023-05-30T01:23:15.745Z,3.60
2023-05-30T01:26:14.153Z,3.33
2023-05-30T01:28:45.561Z,3.40
2023-05-30T01:31:12.926Z,3.20
2023-05-30T01:33:41.470Z,3.63
2023-05-30T01:36:09.086Z,3.40
2023-05-30T01:38:36.191Z,3.27
2023-05-30T01:41:06.782Z,3.27
2023-05-30T01:43:50.959Z,3.37
2023-05-30T01:46:29.827Z,3.23
2023-05-30T01:49:02.743Z,2.90
2023-05-30T01:51:42.239Z,3.73
2023-05-30T01:54:13.666Z,3.10
2023-05-30T01:56:43.142Z,3.30
2023-05-30T01:59:12.236Z,3.30
2023-05-30T02:01:39.924Z,3.50
2023-05-30T02:04:07.115Z,3.47
2023-05-30T02:06:34.034Z,3.40
2023-05-30T02:09:01.164Z,3.30
2023-05-30T02:11:28.425Z,3.47
2023-05-30T02:13:55.354Z,3.27
2023-05-30T02:16:25.587Z,3.60
2023-05-30T02:18:54.018Z,3.30
2023-05-30T02:21:21.842Z,3.20
2023-05-30T02:23:48.871Z,3.40
2023-05-30T02:26:16.051Z,3.57
2023-05-30T02:28:43.160Z,3.20
2023-05-30T02:31:10.180Z,3.53
2023-05-30T02:33:38.417Z,3.20
2023-05-30T02:36:06.720Z,3.30
2023-05-30T02:38:33.636Z,3.10
2023-05-30T02:41:00.674Z,3.20
2023-05-30T02:43:28.337Z,3.10
2023-05-30T02:45:55.381Z,3.60
2023-05-30T02:48:22.685Z,3.33
2023-05-30T02:50:51.029Z,3.00
2023-05-30T02:53:22.674Z,3.60
2023-05-30T02:55:50.066Z,3.80
2023-05-30T02:58:42.976Z,3.20
2023-05-30T03:01:31.491Z,3.23
2023-05-30T03:04:00.634Z,3.37
2023-05-30T03:06:41.580Z,3.20
2023-05-30T03:09:17.769Z,3.27
2023-05-30T03:11:45.129Z,3.60
2023-05-30T03:14:12.465Z,2.93
2023-05-30T03:16:40.392Z,3.53
2023-05-30T03:19:09.192Z,3.30
2023-05-30T03:21:41.296Z,3.30
2023-05-30T03:24:08.483Z,3.33
2023-05-30T03:26:41.751Z,3.50
2023-05-30T03:29:09.424Z,3.87
2023-05-30T03:31:37.210Z,3.30
2023-05-30T03:34:05.395Z,3.23
2023-05-30T03:36:32.279Z,3.03
2023-05-30T03:39:01.135Z,3.23
2023-05-30T03:41:28.094Z,3.60
2023-05-30T03:43:56.969Z,3.50
2023-05-30T03:46:23.949Z,3.13
2023-05-30T03:48:51.309Z,3.40
2023-05-30T03:51:18.401Z,3.00
2023-05-30T03:53:45.502Z,3.43
2023-05-30T03:56:13.975Z,3.13
2023-05-30T03:58:40.950Z,3.47
2023-05-30T04:01:08.858Z,3.40
2023-05-30T04:03:36.486Z,3.40
2023-05-30T04:06:03.950Z,3.40
2023-05-30T04:08:32.184Z,3.33
2023-05-30T04:10:59.345Z,3.30
2023-05-30T04:13:27.853Z,3.70
2023-05-30T04:15:54.808Z,3.17
2023-05-30T04:18:22.097Z,3.40
2023-05-30T04:20:49.158Z,3.50
2023-05-30T04:23:16.228Z,3.30
2023-05-30T04:25:45.805Z,3.40
2023-05-30T04:28:13.580Z,3.40
2023-05-30T04:30:42.188Z,3.60
2023-05-30T04:33:09.535Z,3.90
2023-05-30T04:35:36.778Z,3.60
2023-05-30T04:38:04.481Z,3.60
2023-05-30T04:40:33.589Z,3.30
2023-05-30T04:43:00.740Z,3.60
2023-05-30T04:45:30.127Z,3.70
2023-05-30T04:47:58.597Z,3.67
2023-05-30T04:50:25.825Z,3.70
2023-05-30T04:52:53.095Z,3.37
2023-05-30T04:55:20.270Z,3.70
2023-05-30T04:57:47.241Z,3.20
2023-05-30T05:00:15.559Z,3.73
2023-05-30T05:02:43.050Z,3.60
2023-05-30T05:05:11.740Z,3.60
2023-05-30T05:07:41.524Z,3.70
2023-05-30T05:10:10.163Z,3.70
2023-05-30T05:12:37.041Z,3.67
2023-05-30T05:15:04.536Z,3.37
2023-05-30T05:17:31.880Z,3.60
2023-05-30T05:20:00.151Z,3.30
2023-05-30T05:22:28.762Z,4.67
2023-05-30T05:24:55.762Z,3.93
2023-05-30T05:27:22.718Z,3.63
2023-05-30T05:29:49.712Z,3.60
2023-05-30T05:32:16.652Z,3.80
2023-05-30T05:34:43.896Z,3.63
2023-05-30T05:37:10.799Z,3.63
2023-05-30T05:39:39.041Z,3.80
2023-05-30T05:42:07.689Z,3.43
2023-05-30T05:44:35.507Z,4.17
2023-05-30T05:47:02.449Z,3.63
2023-05-30T05:49:29.326Z,3.43
2023-05-30T05:51:56.216Z,3.60
2023-05-30T05:54:23.171Z,3.77
2023-05-30T05:56:51.534Z,3.50
2023-05-30T05:59:18.427Z,3.70
2023-05-30T06:01:45.680Z,3.90
2023-05-30T06:04:13.206Z,3.70
2023-05-30T06:06:40.206Z,3.90
2023-05-30T06:09:07.103Z,3.20
2023-05-30T06:11:34.066Z,3.57
2023-05-30T06:14:02.423Z,3.13
2023-05-30T06:16:29.521Z,3.70
2023-05-30T06:18:56.556Z,3.80
2023-05-30T06:21:23.485Z,3.70
2023-05-30T06:23:50.412Z,3.23
2023-05-30T06:26:17.357Z,3.57
2023-05-30T06:28:44.288Z,3.73
2023-05-30T06:31:12.572Z,3.10
2023-05-30T06:33:39.452Z,3.30
2023-05-30T06:36:07.139Z,3.50
2023-05-30T06:38:34.094Z,3.37
2023-05-30T06:41:01.155Z,3.40
2023-05-30T06:43:28.280Z,3.83
2023-05-30T06:45:55.497Z,4.00
2023-05-30T06:48:23.851Z,3.70
2023-05-30T06:50:50.945Z,3.37
2023-05-30T06:53:17.887Z,3.40
2023-05-30T06:55:45.128Z,3.60
2023-05-30T06:58:14.249Z,3.73
2023-05-30T07:00:41.782Z,3.33
2023-05-30T07:03:08.737Z,3.00
2023-05-30T07:05:37.668Z,3.70
2023-05-30T07:08:04.951Z,3.63
2023-05-30T07:10:32.325Z,3.77
2023-05-30T07:12:59.231Z,3.53
2023-05-30T07:15:28.313Z,3.50
2023-05-30T07:17:55.256Z,3.70
2023-05-30T07:20:24.773Z,3.53
2023-05-30T07:22:53.472Z,3.50
2023-05-30T07:25:20.936Z,3.60
2023-05-30T07:27:47.913Z,3.20
2023-05-30T07:30:14.942Z,3.63
2023-05-30T07:32:41.876Z,3.67
2023-05-30T07:35:09.197Z,3.63
2023-05-30T07:37:37.325Z,3.60
2023-05-30T07:40:08.336Z,3.63
2023-05-30T07:42:35.633Z,3.63
2023-05-30T07:45:02.562Z,3.40
2023-05-30T07:47:29.669Z,3.30
2023-05-30T07:49:56.649Z,3.33
2023-05-30T07:52:23.666Z,3.60
2023-05-30T07:54:50.678Z,3.70
2023-05-30T07:57:19.134Z,3.60
2023-05-30T07:59:46.124Z,3.43
2023-05-30T08:02:13.037Z,3.83
2023-05-30T08:04:40.106Z,3.73
2023-05-30T08:07:07.394Z,3.80
2023-05-30T08:09:34.574Z,4.03
2023-05-30T08:12:04.252Z,4.10
2023-05-30T08:14:32.635Z,3.70
2023-05-30T08:16:59.564Z,3.90
2023-05-30T08:19:26.496Z,4.00
2023-05-30T08:21:53.798Z,3.80
2023-05-30T08:24:21.368Z,3.80
2023-05-30T08:26:49.784Z,4.40
2023-05-30T08:29:16.931Z,3.80
2023-05-30T08:31:45.576Z,3.50
2023-05-30T08:34:12.663Z,4.37
2023-05-30T08:36:39.602Z,3.90
2023-05-30T08:39:15.115Z,4.00
2023-05-30T08:41:42.755Z,3.67
2023-05-30T08:44:09.976Z,3.90
2023-05-30T08:46:40.259Z,3.90
2023-05-30T08:49:11.933Z,3.80
2023-05-30T08:51:42.355Z,4.30
2023-05-30T08:54:13.839Z,3.73
2023-05-30T08:56:44.194Z,3.73
2023-05-30T08:59:12.679Z,3.83
2023-05-30T09:01:40.557Z,3.67
2023-05-30T09:04:09.807Z,3.50
2023-05-30T09:06:40.616Z,3.53
2023-05-30T09:09:10.186Z,3.23
2023-05-30T09:11:37.367Z,3.53
2023-05-30T09:14:05.118Z,3.80
2023-05-30T09:16:32.620Z,3.80
2023-05-30T09:19:02.427Z,3.70
2023-05-30T09:21:36.107Z,3.47
2023-05-30T09:24:04.350Z,3.60
2023-05-30T09:26:31.638Z,3.50
2023-05-30T09:29:03.130Z,3.40
2023-05-30T09:31:30.814Z,3.67
2023-05-30T09:33:57.806Z,3.23
2023-05-30T09:36:26.751Z,3.80
2023-05-30T09:38:56.811Z,3.90
2023-05-30T09:41:24.393Z,3.60
2023-05-30T09:43:55.292Z,3.80
2023-05-30T09:46:23.060Z,3.37
2023-05-30T09:48:50.785Z,3.90
2023-05-30T09:51:19.174Z,3.90
2023-05-30T09:54:00.306Z,3.57
2023-05-30T09:56:31.442Z,3.60
2023-05-30T09:58:59.571Z,3.60
2023-05-30T10:01:26.862Z,3.40
2023-05-30T10:03:57.092Z,3.37
2023-05-30T10:06:24.365Z,3.60
2023-05-30T10:08:53.146Z,3.87
2023-05-30T10:11:21.591Z,3.67
2023-05-30T10:13:49.247Z,3.23
2023-05-30T10:16:20.294Z,4.00
2023-05-30T10:18:53.075Z,3.60
2023-05-30T10:21:23.295Z,3.77
2023-05-30T10:23:52.002Z,3.30
2023-05-30T10:26:21.958Z,3.80
2023-05-30T10:28:50.770Z,3.50
2023-05-30T10:31:17.889Z,3.50
2023-05-30T10:33:57.135Z,3.27
2023-05-30T10:36:25.797Z,3.37
2023-05-30T10:39:00.801Z,3.17
2023-05-30T10:41:40.587Z,3.30
2023-05-30T10:44:21.174Z,3.37
2023-05-30T10:46:55.212Z,2.80
2023-05-30T10:49:26.995Z,3.50
2023-05-30T10:52:01.008Z,3.60
2023-05-30T10:54:31.318Z,3.27
2023-05-30T10:57:00.140Z,3.53
2023-05-30T10:59:27.335Z,3.30
2023-05-30T11:02:02.070Z,3.37
2023-05-30T11:04:39.530Z,3.80
2023-05-30T11:07:11.391Z,2.93
2023-05-30T11:09:42.229Z,3.10
2023-05-30T11:12:21.671Z,3.20
2023-05-30T11:14:56.381Z,2.83
2023-05-30T11:17:29.965Z,3.35
2023-05-30T11:20:10.569Z,3.50
2023-05-30T11:22:38.775Z,3.22
2023-05-30T11:25:19.635Z,3.38
2023-05-30T11:28:15.146Z,3.10
2023-05-30T11:30:46.344Z,3.00
2023-05-30T11:33:14.494Z,3.40
2023-05-30T11:35:44.454Z,3.10
2023-05-30T11:38:16.386Z,3.22
2023-05-30T11:40:44.125Z,2.90
2023-05-30T11:43:15.482Z,3.20
2023-05-30T11:45:43.913Z,3.13
2023-05-30T11:48:13.748Z,2.97
2023-05-30T11:50:41.507Z,3.47
2023-05-30T11:53:13.308Z,3.05
2023-05-30T11:55:44.149Z,2.75
2023-05-30T11:58:12.863Z,3.00
2023-05-30T12:00:42.189Z,2.90
2023-05-30T12:03:13.206Z,3.25
2023-05-30T12:05:41.030Z,3.40
2023-05-30T12:08:09.248Z,3.20
2023-05-30T12:10:36.464Z,3.03
2023-05-30T12:13:03.732Z,3.20
2023-05-30T12:15:32.063Z,3.42
2023-05-30T12:18:03.235Z,2.88
2023-05-30T12:20:30.932Z,3.50
2023-05-30T12:22:57.881Z,3.30
2023-05-30T12:25:26.327Z,3.00
2023-05-30T12:27:55.925Z,3.00
2023-05-30T12:30:24.025Z,2.80
2023-05-30T12:32:52.327Z,2.90
2023-05-30T12:35:26.079Z,2.85
2023-05-30T12:37:56.811Z,3.33
2023-05-30T12:40:26.721Z,3.17
2023-05-30T12:42:57.537Z,3.05
2023-05-30T12:45:24.753Z,2.85
2023-05-30T12:47:53.681Z,3.13
2023-05-30T12:50:21.090Z,2.83
2023-05-30T12:52:48.033Z,2.80
2023-05-30T12:55:14.991Z,2.95
2023-05-30T12:57:41.975Z,2.80
2023-05-30T13:00:10.506Z,3.22
2023-05-30T13:02:38.195Z,2.70
2023-05-30T13:05:07.665Z,2.97
2023-05-30T13:07:34.614Z,3.30
2023-05-30T13:10:02.087Z,2.85
2023-05-30T13:12:29.017Z,3.05
2023-05-30T13:14:56.144Z,2.80
2023-05-30T13:17:24.207Z,2.83
2023-05-30T13:19:51.328Z,2.58
2023-05-30T13:22:19.742Z,2.90
2023-05-30T13:24:46.751Z,2.60
2023-05-30T13:27:13.715Z,3.13
2023-05-30T13:29:41.198Z,2.80
2023-05-30T13:32:09.271Z,2.58
2023-05-30T13:34:37.712Z,2.70
2023-05-30T13:37:06.326Z,2.72
2023-05-30T13:39:35.187Z,2.85
2023-05-30T13:42:03.057Z,3.05
2023-05-30T13:44:30.585Z,2.75
2023-05-30T13:46:57.639Z,2.80
2023-05-30T13:49:33.261Z,3.05
2023-05-30T13:52:01.248Z,2.75
2023-05-30T13:54:28.178Z,2.75
2023-05-30T13:56:56.620Z,2.70
2023-05-30T13:59:25.492Z,2.85
2023-05-30T14:01:54.116Z,3.03
2023-05-30T14:04:21.293Z,3.10
2023-05-30T14:06:52.001Z,2.75
2023-05-30T14:09:20.558Z,2.85
2023-05-30T14:11:49.582Z,2.78
2023-05-30T14:14:18.871Z,2.80
2023-05-30T14:16:45.969Z,3.00
2023-05-30T14:19:13.197Z,2.72
2023-05-30T14:21:40.370Z,2.90
2023-05-30T14:24:07.897Z,2.90
2023-05-30T14:26:34.970Z,2.60
2023-05-30T14:29:05.150Z,2.80
2023-05-30T14:31:33.603Z,2.80
2023-05-30T14:34:00.843Z,2.70
2023-05-30T14:36:27.783Z,2.50
2023-05-30T14:38:54.736Z,2.85
2023-05-30T14:41:22.566Z,2.60
2023-05-30T14:43:49.765Z,2.88
2023-05-30T14:46:16.824Z,2.97
2023-05-30T14:48:45.121Z,2.88
2023-05-30T14:51:12.016Z,3.28
2023-05-30T14:53:39.070Z,2.78
2023-05-30T14:56:06.357Z,2.95
2023-05-30T14:58:34.323Z,3.15
2023-05-30T15:01:12.652Z,2.90
2023-05-30T15:03:50.161Z,2.80
2023-05-30T15:06:17.337Z,2.80
2023-05-30T15:08:44.271Z,2.72
2023-05-30T15:11:11.696Z,2.60
2023-05-30T15:13:38.743Z,2.60
2023-05-30T15:16:05.887Z,2.60
2023-05-30T15:18:32.785Z,2.72
2023-05-30T15:21:01.870Z,3.20
2023-05-30T15:23:29.002Z,3.22
2023-05-30T15:25:55.959Z,2.83
2023-05-30T15:28:23.008Z,3.40
2023-05-30T15:30:49.915Z,2.90
2023-05-30T15:33:16.839Z,2.80
2023-05-30T15:35:44.062Z,3.10
2023-05-30T15:38:12.391Z,2.75
2023-05-30T15:40:40.716Z,2.97
2023-05-30T15:43:07.629Z,3.03
2023-05-30T15:45:34.536Z,2.78
2023-05-30T15:48:01.599Z,2.57
2023-05-30T15:50:28.573Z,2.57
2023-05-30T15:52:55.584Z,2.87
2023-05-30T15:55:24.214Z,2.70
2023-05-30T15:57:51.129Z,2.90
2023-05-30T16:00:18.996Z,2.97
2023-05-30T16:02:46.056Z,3.07
2023-05-30T16:05:13.108Z,3.13
2023-05-30T16:07:40.068Z,2.60
2023-05-30T16:10:08.444Z,2.70
2023-05-30T16:12:36.741Z,2.83
2023-05-30T16:15:05.567Z,2.70
2023-05-30T16:17:32.496Z,3.07
2023-05-30T16:19:59.451Z,2.87
2023-05-30T16:22:26.388Z,3.20
2023-05-30T16:24:54.378Z,2.77
2023-05-30T16:27:21.369Z,2.90
2023-05-30T16:29:49.674Z,2.60
2023-05-30T16:32:16.637Z,2.70
2023-05-30T16:34:43.546Z,2.57
2023-05-30T16:37:10.500Z,2.73
2023-05-30T16:39:37.413Z,2.67
2023-05-30T16:42:04.731Z,2.40
2023-05-30T16:44:31.640Z,2.93
2023-05-30T16:47:00.131Z,2.67
2023-05-30T16:49:27.157Z,2.50
2023-05-30T16:51:54.951Z,2.70
2023-05-30T16:54:21.955Z,2.53
2023-05-30T16:56:48.924Z,2.90
2023-05-30T16:59:15.988Z,3.00
2023-05-30T17:01:42.956Z,2.60
2023-05-30T17:04:11.352Z,2.80
2023-05-30T17:06:38.365Z,2.70
2023-05-30T17:09:07.237Z,2.70
2023-05-30T17:11:35.107Z,2.70
2023-05-30T17:14:02.249Z,3.00
2023-05-30T17:16:29.333Z,2.63
2023-05-30T17:18:56.475Z,2.80
2023-05-30T17:21:24.744Z,2.40
2023-05-30T17:23:54.341Z,2.40
2023-05-30T17:26:21.646Z,2.43
2023-05-30T17:28:48.644Z,2.50
2023-05-30T17:31:16.307Z,2.40
2023-05-30T17:33:43.375Z,2.40
2023-05-30T17:36:11.276Z,2.50
2023-05-30T17:38:39.615Z,2.67
2023-05-30T17:41:06.703Z,2.50
2023-05-30T17:43:33.848Z,2.60
2023-05-30T17:46:01.572Z,2.40
2023-05-30T17:48:30.393Z,2.60
2023-05-30T17:50:57.477Z,2.37
2023-05-30T17:53:24.644Z,2.20
2023-05-30T17:55:54.362Z,2.50
2023-05-30T17:58:21.249Z,2.30
2023-05-30T18:00:48.223Z,2.30
2023-05-30T18:03:15.441Z,2.37
2023-05-30T18:05:42.784Z,2.33
2023-05-30T18:08:15.135Z,2.50
2023-05-30T18:10:42.405Z,2.43
2023-05-30T18:13:11.131Z,2.70
2023-05-30T18:15:38.134Z,2.50
2023-05-30T18:18:05.444Z,2.50
2023-05-30T18:20:32.575Z,2.33
2023-05-30T18:22:59.604Z,2.50
2023-05-30T18:25:26.589Z,2.50
2023-05-30T18:27:53.549Z,2.20
2023-05-30T18:30:21.888Z,2.30
2023-05-30T18:32:48.964Z,2.17
2023-05-30T18:35:16.656Z,2.40
2023-05-30T18:37:43.888Z,2.70
2023-05-30T18:40:13.153Z,2.37
2023-05-30T18:42:40.339Z,2.20
2023-05-30T18:45:08.428Z,2.67
2023-05-30T18:47:37.568Z,2.50
2023-05-30T18:50:05.267Z,2.33
2023-05-30T18:52:32.292Z,2.23
2023-05-30T18:54:59.324Z,2.30
2023-05-30T18:57:26.336Z,2.10
2023-05-30T18:59:53.731Z,2.10
2023-05-30T19:02:20.752Z,2.40
2023-05-30T19:04:49.653Z,2.43
2023-05-30T19:07:16.861Z,2.40
2023-05-30T19:09:46.740Z,2.40
2023-05-30T19:12:13.682Z,2.37
2023-05-30T19:14:42.523Z,2.37
2023-05-30T19:17:09.449Z,2.30
2023-05-30T19:19:36.381Z,2.23
2023-05-30T19:22:05.109Z,2.10
2023-05-30T19:24:32.009Z,2.10
2023-05-30T19:26:59.181Z,2.10
2023-05-30T19:29:26.094Z,2.23
2023-05-30T19:31:53.064Z,1.93
2023-05-30T19:34:21.237Z,2.13
2023-05-30T19:36:49.176Z,2.33
2023-05-30T19:39:17.475Z,2.10
2023-05-30T19:41:44.426Z,2.20
2023-05-30T19:44:11.348Z,2.20
2023-05-30T19:46:39.354Z,2.27
2023-05-30T19:49:06.343Z,1.93
2023-05-30T19:51:33.220Z,2.20
2023-05-30T19:54:00.258Z,2.50
2023-05-30T19:56:28.552Z,2.30
2023-05-30T19:58:55.593Z,2.30
2023-05-30T20:01:22.679Z,2.27
2023-05-30T20:03:50.173Z,2.33
2023-05-30T20:06:17.151Z,2.30
2023-05-30T20:08:44.089Z,1.90
2023-05-30T20:11:11.012Z,2.23
2023-05-30T20:13:39.971Z,2.20
2023-05-30T20:16:07.170Z,2.20
2023-05-30T20:18:34.222Z,2.33
2023-05-30T20:21:01.559Z,2.17
2023-05-30T20:23:28.632Z,2.27
2023-05-30T20:25:55.584Z,2.00
2023-05-30T20:28:22.522Z,2.50
2023-05-30T20:30:51.119Z,2.23
2023-05-30T20:33:18.095Z,2.23
2023-05-30T20:35:45.669Z,2.20
2023-05-30T20:38:12.749Z,2.13
2023-05-30T20:40:39.698Z,2.47
2023-05-30T20:43:06.602Z,2.23
2023-05-30T20:45:33.762Z,2.10
2023-05-30T20:48:02.090Z,2.00
2023-05-30T20:50:29.201Z,2.07
2023-05-30T20:52:56.166Z,1.93
2023-05-30T20:55:23.140Z,2.20
2023-05-30T20:57:50.102Z,2.00
2023-05-30T21:00:17.740Z,2.30
2023-05-30T21:02:44.885Z,2.03
2023-05-30T21:05:13.288Z,1.80
2023-05-30T21:07:41.256Z,1.73
2023-05-30T21:10:10.145Z,2.07
2023-05-30T21:12:37.173Z,1.97
2023-05-30T21:15:04.914Z,2.23
2023-05-30T21:17:31.848Z,2.10
2023-05-30T21:19:58.818Z,2.03
2023-05-30T21:22:27.146Z,2.07
2023-05-30T21:24:54.244Z,2.10
2023-05-30T21:27:21.208Z,1.90
2023-05-30T21:29:48.294Z,1.80
2023-05-30T21:32:15.478Z,2.10
2023-05-30T21:34:42.433Z,2.03
2023-05-30T21:37:09.376Z,2.20
2023-05-30T21:39:37.806Z,2.30
2023-05-30T21:42:05.332Z,1.97
2023-05-30T21:44:32.277Z,2.07
2023-05-30T21:46:59.329Z,2.10
2023-05-30T21:49:26.276Z,2.00
2023-05-30T21:51:53.260Z,2.07
2023-05-30T21:54:35.759Z,1.80
2023-05-30T21:57:04.893Z,1.97
2023-05-30T21:59:32.216Z,2.20
2023-05-30T22:01:59.636Z,2.20
2023-05-30T22:04:26.782Z,1.93
2023-05-30T22:06:56.071Z,1.93
2023-05-30T22:09:23.083Z,1.90
2023-05-30T22:11:50.135Z,1.97
2023-05-30T22:14:18.918Z,2.03
2023-05-30T22:16:46.065Z,1.90
2023-05-30T22:19:13.187Z,1.80
2023-05-30T22:21:48.017Z,2.27
2023-05-30T22:24:22.021Z,1.90
2023-05-30T22:26:49.065Z,1.80
2023-05-30T22:29:15.969Z,1.80
2023-05-30T22:31:44.260Z,1.70
2023-05-30T22:34:11.291Z,1.90
2023-05-30T22:36:38.262Z,1.83
2023-05-30T22:39:05.155Z,1.70
2023-05-30T22:41:32.086Z,1.70
2023-05-30T22:43:59.010Z,1.90
2023-05-30T22:46:26.085Z,2.20
2023-05-30T22:48:54.481Z,1.70
2023-05-30T22:51:21.455Z,1.97
2023-05-30T22:53:48.498Z,1.93
2023-05-30T22:56:16.634Z,1.80
2023-05-30T22:58:43.590Z,1.67
2023-05-30T23:01:10.553Z,1.87
2023-05-30T23:03:37.848Z,1.83
2023-05-30T23:06:06.985Z,1.80
2023-05-30T23:08:33.885Z,1.40
2023-05-30T23:11:01.004Z,2.10
2023-05-30T23:13:28.130Z,1.70
2023-05-30T23:15:55.036Z,1.80
2023-05-30T23:18:21.996Z,1.70
2023-05-30T23:20:48.959Z,1.80
2023-05-30T23:23:17.312Z,1.80
2023-05-30T23:25:44.222Z,1.93
2023-05-30T23:28:11.440Z,1.90
2023-05-30T23:30:39.488Z,1.80
2023-05-30T23:33:06.621Z,1.93
2023-05-30T23:35:33.565Z,2.03
2023-05-30T23:38:00.547Z,1.67
2023-05-30T23:40:29.062Z,2.00
2023-05-30T23:42:56.082Z,1.70
2023-05-30T23:45:23.059Z,1.57
2023-05-30T23:47:50.393Z,1.77
2023-05-30T23:50:17.742Z,2.00
2023-05-30T23:52:44.647Z,1.50
2023-05-30T23:55:12.269Z,1.70
2023-05-30T23:57:40.521Z,2.30
